Pagina principale
METAR-TAF:

METAR-TAF

Aeroporti :

Monte Cimone, Italia

latitudine: 44-12N, longitudine: 010-42E, altezza: 2165 m

Osservazione

Il bollettino è stato emesso 48 minuti fa, alle 08:55 UTC
Vento 11 kt da est
Temperature 6°C
Umidità 93%
Pressione 1024 hPa
Visibilità minore di 50 m
nebbia

METAR: LIVC 170855Z 09011KT 0000 FG VV/// 06/05 Q1024 RMK MON INVIS VAL INVIS VIS MIN 0000

Ora: 11:43 (09:43 UTC)


TAF: mancante

Osservazioni e previsioni meteorologiche di più di 4000 aeroporti (messaggi METAR e TAF).

Le stazioni disponibili sono rappresentate dai dischi gialli e rossi sulla carta.

Puntare il mouse per vedere il nome della stazione.

Clicca sopra per visualizzare le osservazioni e previsioni meteorologiche.

Per cambiare la mappa : fare clic sui pulsanti verdi con una croce nera per ingrandire, il pulsante verde con un trattino per diminuire, o sulla freccia verde per le mappe adiacenti.


METAR-TAF: